Time;durP1;ratioP1;P1;durP2;ratioP2;P2;SDS_P1;SDS_P2;PMS_P1;PMS_P2;Temp;Humidity;BMP_temperature;BMP_pressure;BME280_temperature;BME280_humidity;BME280_pressure;Samples;Min_cycle;Max_cycle;Signal;HPM_P1;HPM_P2
2022/11/04 00:02:01;;;;;;;5.55;4.08;;;;;;;11.12;100.00;99794.20;1796278;77;21640;-63
2022/11/04 00:04:28;;;;;;;6.12;4.65;;;;;;;11.01;100.00;99797.27;1811638;77;21553;-63
2022/11/04 00:06:55;;;;;;;6.00;4.50;;;;;;;10.95;100.00;99798.39;1808254;76;21503;-63
2022/11/04 00:09:28;;;;;;;6.03;4.47;;;;;;;10.93;100.00;99794.97;1824976;76;21855;-63
2022/11/04 00:14:42;;;;;;;8.93;4.15;;;;;;;10.85;100.00;99793.09;1804259;76;21542;-63
2022/11/04 00:17:23;;;;;;;6.22;4.78;;;;;;;10.79;100.00;99795.52;1814655;76;21561;-63
2022/11/04 00:33:53;;;;;;;5.95;4.47;;;;;;;10.55;100.00;99791.27;1820667;76;21733;-63
2022/11/04 00:36:19;;;;;;;6.55;5.37;;;;;;;10.52;100.00;99785.22;1783067;77;21880;-63
2022/11/04 00:38:46;;;;;;;4.95;4.55;;;;;;;10.50;100.00;99783.58;1780562;77;21645;-63
2022/11/04 00:41:27;;;;;;;5.72;4.37;;;;;;;10.51;100.00;99781.36;1788204;76;21457;-64
2022/11/04 00:43:57;;;;;;;8.15;4.85;;;;;;;10.52;100.00;99791.78;1798445;77;21604;-63
2022/11/04 00:46:24;;;;;;;5.28;4.80;;;;;;;10.52;100.00;99797.52;1818969;77;21529;-63
2022/11/04 00:48:51;;;;;;;6.27;5.27;;;;;;;10.55;100.00;99793.89;1816024;76;21893;-63
2022/11/04 00:51:20;;;;;;;4.92;4.12;;;;;;;10.61;100.00;99797.61;1804881;76;21546;-63
2022/11/04 00:53:47;;;;;;;8.20;4.70;;;;;;;10.62;100.00;99794.05;1794992;76;21535;-63
2022/11/04 00:56:15;;;;;;;8.35;4.30;;;;;;;10.67;100.00;99789.00;1818951;76;21078;-63
2022/11/04 00:58:42;;;;;;;6.87;4.87;;;;;;;10.69;100.00;99793.73;1803010;77;21587;-63
2022/11/04 01:01:12;;;;;;;6.35;4.60;;;;;;;10.70;100.00;99785.41;1815733;76;21819;-63
2022/11/04 01:03:38;;;;;;;7.25;4.83;;;;;;;10.69;100.00;99784.53;1829511;77;21533;-63
2022/11/04 01:06:05;;;;;;;6.83;4.70;;;;;;;10.71;100.00;99789.27;1804229;77;21530;-68
2022/11/04 01:08:32;;;;;;;5.08;4.45;;;;;;;10.73;100.00;99787.05;1823641;76;21526;-64
2022/11/04 01:11:04;;;;;;;8.18;4.75;;;;;;;10.69;100.00;99784.53;1811593;76;20979;-64
2022/11/04 01:13:31;;;;;;;4.95;4.08;;;;;;;10.64;100.00;99783.88;1784539;77;22097;-64
2022/11/04 01:16:01;;;;;;;5.30;4.28;;;;;;;10.65;100.00;99783.41;1792966;77;21471;-63
2022/11/04 01:18:28;;;;;;;4.95;3.95;;;;;;;10.61;100.00;99780.52;1813510;77;20929;-64
2022/11/04 01:20:56;;;;;;;6.97;5.30;;;;;;;10.56;100.00;99775.91;1808931;77;21109;-63
2022/11/04 01:23:23;;;;;;;5.45;4.35;;;;;;;10.52;100.00;99773.85;1817229;77;21619;-63
2022/11/04 01:25:50;;;;;;;6.92;4.70;;;;;;;10.54;100.00;99777.73;1790233;76;21526;-64
2022/11/04 01:28:17;;;;;;;5.78;3.72;;;;;;;10.52;100.00;99777.80;1773801;77;21458;-64
2022/11/04 01:30:45;;;;;;;9.33;4.22;;;;;;;10.52;100.00;99773.39;1798568;77;20933;-63
2022/11/04 01:33:12;;;;;;;7.00;4.83;;;;;;;10.54;100.00;99773.33;1814381;77;21606;-63
2022/11/04 01:35:39;;;;;;;5.97;4.45;;;;;;;10.52;100.00;99769.91;1826711;76;21463;-63
2022/11/04 01:38:06;;;;;;;5.58;3.83;;;;;;;10.54;100.00;99771.17;1795655;77;21772;-64
2022/11/04 01:40:38;;;;;;;5.42;4.03;;;;;;;10.55;100.00;99780.31;1814480;77;21474;-64
2022/11/04 01:43:14;;;;;;;6.22;4.10;;;;;;;10.57;100.00;99778.47;1804486;76;21624;-63
2022/11/04 01:45:55;;;;;;;6.08;4.78;;;;;;;10.57;100.00;99774.97;1779244;77;21420;-63
2022/11/04 01:48:31;;;;;;;10.55;4.60;;;;;;;10.56;100.00;99770.64;1797269;78;21532;-64
2022/11/04 01:50:58;;;;;;;5.60;4.30;;;;;;;10.51;100.00;99780.05;1799901;77;21767;-64
2022/11/04 01:53:28;;;;;;;5.37;3.67;;;;;;;10.52;100.00;99773.85;1809401;76;21621;-64
2022/11/04 01:55:58;;;;;;;5.80;4.12;;;;;;;10.50;100.00;99777.85;1822270;77;21661;-63
2022/11/04 01:58:28;;;;;;;6.45;4.28;;;;;;;10.48;100.00;99774.90;1816068;77;21145;-64
2022/11/04 02:00:54;;;;;;;6.53;4.35;;;;;;;10.46;100.00;99776.27;1807191;77;21963;-64
2022/11/04 02:03:34;;;;;;;4.60;4.03;;;;;;;10.43;100.00;99779.01;1798028;76;21677;-63
2022/11/04 02:06:01;;;;;;;5.75;4.40;;;;;;;10.35;100.00;99777.63;1818353;76;21572;-63
2022/11/04 02:08:28;;;;;;;5.53;3.98;;;;;;;10.29;100.00;99770.34;1817546;76;21050;-64
2022/11/04 02:10:59;;;;;;;6.67;3.50;;;;;;;10.27;100.00;99768.23;1799266;77;21516;-64
2022/11/04 02:13:27;;;;;;;10.58;4.35;;;;;;;10.31;100.00;99771.63;1802163;76;21612;-64
2022/11/04 02:16:19;;;;;;;5.47;4.17;;;;;;;10.30;100.00;99768.55;1823203;76;21545;-64
2022/11/04 02:19:15;;;;;;;6.03;3.70;;;;;;;10.23;100.00;99776.31;1820505;76;21517;-63
2022/11/04 02:22:22;;;;;;;4.73;3.77;;;;;;;10.20;100.00;99775.95;1804396;77;21538;-63
2022/11/04 02:25:17;;;;;;;7.33;4.25;;;;;;;10.21;100.00;99775.48;1826806;77;21554;-63
2022/11/04 02:27:56;;;;;;;5.92;3.90;;;;;;;10.22;100.00;99770.64;1803120;76;21653;-64
2022/11/04 02:30:23;;;;;;;4.80;3.12;;;;;;;10.23;100.00;99771.05;1810532;76;21732;-63
2022/11/04 02:33:14;;;;;;;4.28;3.87;;;;;;;10.29;100.00;99769.49;1748584;80;21473;-63
2022/11/04 02:35:58;;;;;;;5.33;3.67;;;;;;;10.33;100.00;99771.95;1756955;79;21406;-63
2022/11/04 02:38:54;;;;;;;4.80;3.65;;;;;;;10.38;100.00;99774.42;1826353;77;21014;-63
2022/11/04 02:41:40;;;;;;;5.75;3.70;;;;;;;10.46;100.00;99776.73;1822592;77;21502;-63
2022/11/04 02:44:24;;;;;;;7.60;3.90;;;;;;;10.51;100.00;99761.64;1816792;76;21803;-63
2022/11/04 02:46:58;;;;;;;4.53;3.22;;;;;;;10.51;100.00;99761.64;1771190;78;21964;-63
2022/11/04 02:49:30;;;;;;;4.47;3.45;;;;;;;10.51;100.00;99757.70;1810676;76;21503;-65
2022/11/04 02:52:17;;;;;;;3.72;3.00;;;;;;;10.53;100.00;99754.55;1781837;77;21564;-65
2022/11/04 02:54:49;;;;;;;4.37;3.35;;;;;;;10.54;100.00;99750.14;1815683;77;21194;-65
2022/11/04 02:57:20;;;;;;;6.70;3.60;;;;;;;10.51;100.00;99741.92;1791898;77;22010;-66
2022/11/04 03:00:05;;;;;;;3.90;3.00;;;;;;;10.56;100.00;99745.66;1808240;76;21548;-65
2022/11/04 03:02:53;;;;;;;4.17;3.37;;;;;;;10.55;100.00;99747.89;1794233;76;21047;-65
2022/11/04 03:05:24;;;;;;;6.70;3.20;;;;;;;10.54;100.00;99739.62;1816633;77;21544;-66
2022/11/04 03:07:51;;;;;;;6.00;3.25;;;;;;;10.49;100.00;99743.73;1790568;77;21614;-66
2022/11/04 03:10:37;;;;;;;5.75;3.58;;;;;;;10.47;100.00;99751.70;1809826;77;21828;-65
2022/11/04 03:13:14;;;;;;;5.55;3.27;;;;;;;10.46;100.00;99753.92;1782595;77;20992;-65
2022/11/04 03:15:50;;;;;;;4.42;3.62;;;;;;;10.44;100.00;99743.94;1829328;77;21156;-65
2022/11/04 03:18:31;;;;;;;4.37;3.45;;;;;;;10.37;100.00;99750.35;1807298;76;21558;-65
2022/11/04 03:20:58;;;;;;;4.37;3.58;;;;;;;10.37;100.00;99747.72;1786305;77;21026;-65
2022/11/04 03:23:25;;;;;;;6.60;3.37;;;;;;;10.33;100.00;99756.19;1810348;76;21955;-66
2022/11/04 03:25:53;;;;;;;4.78;3.42;;;;;;;10.32;100.00;99753.61;1805850;77;21590;-65
2022/11/04 03:28:32;;;;;;;4.03;3.45;;;;;;;10.33;100.00;99750.93;1775592;77;20999;-66
2022/11/04 03:31:02;;;;;;;6.70;3.80;;;;;;;10.33;100.00;99758.81;1812281;76;21654;-65
2022/11/04 03:33:42;;;;;;;6.20;3.50;;;;;;;10.27;100.00;99755.56;1767991;77;21484;-66
2022/11/04 03:36:09;;;;;;;4.62;3.40;;;;;;;10.27;100.00;99759.50;1802713;77;22000;-66
2022/11/04 03:38:37;;;;;;;5.78;3.27;;;;;;;10.25;100.00;99760.02;1790297;77;21745;-65
2022/11/04 03:41:08;;;;;;;4.42;3.45;;;;;;;10.25;100.00;99758.71;1809857;77;21586;-66
2022/11/04 03:43:35;;;;;;;5.55;3.47;;;;;;;10.26;100.00;99756.46;1794350;77;21780;-66
2022/11/04 03:46:02;;;;;;;5.20;3.72;;;;;;;10.24;100.00;99751.73;1804551;76;20963;-66
2022/11/04 03:48:28;;;;;;;4.45;3.33;;;;;;;10.24;100.00;99751.27;1808755;76;21844;-66
2022/11/04 03:50:55;;;;;;;4.12;2.87;;;;;;;10.26;100.00;99749.89;1806852;76;21585;-66
2022/11/04 03:53:23;;;;;;;4.00;3.62;;;;;;;10.29;100.00;99748.00;1787572;77;20969;-66
2022/11/04 03:56:24;;;;;;;7.42;4.03;;;;;;;10.28;100.00;99741.48;1789906;77;21416;-66
2022/11/04 03:59:03;;;;;;;3.20;2.87;;;;;;;10.35;100.00;99750.88;1780220;77;21515;-66
2022/11/04 04:01:53;;;;;;;7.12;3.10;;;;;;;10.36;100.00;99749.09;1813990;76;21810;-65
2022/11/04 04:04:32;;;;;;;3.52;3.20;;;;;;;10.37;100.00;99735.89;1747165;79;21435;-66
2022/11/04 04:07:15;;;;;;;4.20;3.17;;;;;;;10.33;100.00;99737.79;1738448;80;20993;-66
2022/11/04 04:09:58;;;;;;;8.70;4.17;;;;;;;10.28;100.00;99746.30;1742672;80;21534;-67
2022/11/04 04:12:32;;;;;;;4.30;3.70;;;;;;;10.30;100.00;99744.91;1729247;80;21588;-66
2022/11/04 04:15:07;;;;;;;5.92;3.60;;;;;;;10.30;100.00;99753.70;1827118;77;21852;-69
2022/11/04 04:17:42;;;;;;;5.85;3.72;;;;;;;10.29;100.00;99754.57;1811244;77;21542;-68
2022/11/04 04:20:19;;;;;;;4.83;3.50;;;;;;;10.27;100.00;99755.56;1814666;77;21632;-69
2022/11/04 04:28:45;;;;;;;6.00;3.35;;;;;;;10.24;100.00;99757.83;1794583;77;21882;-69
2022/11/04 04:31:48;;;;;;;8.60;3.98;;;;;;;10.26;100.00;99762.56;1796642;77;21537;-68
2022/11/04 04:33:43;;;;;;;4.72;3.47;;;;;;;10.27;100.00;99760.34;1793873;77;21523;-69
2022/11/04 04:36:10;;;;;;;6.50;3.87;;;;;;;10.26;100.00;99764.34;1807229;77;20969;-69
2022/11/04 04:47:20;;;;;;;6.10;4.30;;;;;;;10.19;100.00;99772.06;1744881;80;22145;-64
2022/11/04 04:49:51;;;;;;;4.10;3.80;;;;;;;10.20;100.00;99766.76;1826876;76;21563;-66
2022/11/04 04:52:18;;;;;;;6.47;5.28;;;;;;;10.21;100.00;99767.61;1789403;77;21728;-65
2022/11/04 04:54:45;;;;;;;8.20;4.53;;;;;;;10.22;100.00;99777.21;1776127;77;21796;-63
2022/11/04 04:57:11;;;;;;;5.17;4.53;;;;;;;10.21;100.00;99772.86;1810987;77;21605;-64
2022/11/04 06:59:30;;;;;;;9.88;5.95;;;;;;;8.01;100.00;99848.06;1845337;76;26050;-64
2022/11/04 07:01:57;;;;;;;6.80;5.90;;;;;;;8.38;100.00;99846.95;1806424;76;21442;-63
2022/11/04 07:04:24;;;;;;;13.68;5.72;;;;;;;8.67;100.00;99844.78;1818960;76;21817;-65
2022/11/04 07:06:51;;;;;;;8.30;5.40;;;;;;;8.89;100.00;99844.95;1820226;78;21506;-64
2022/11/04 07:09:18;;;;;;;4.70;4.30;;;;;;;9.10;100.00;99853.02;1817510;77;21096;-65
2022/11/04 07:11:45;;;;;;;6.90;5.07;;;;;;;9.24;100.00;99848.16;1813468;78;21521;-64
2022/11/04 07:14:12;;;;;;;6.08;4.80;;;;;;;9.39;100.00;99853.80;1812992;77;21437;-61
2022/11/04 07:16:39;;;;;;;5.25;4.60;;;;;;;9.55;100.00;99852.36;1822736;77;21805;-62
2022/11/04 07:19:06;;;;;;;6.15;4.75;;;;;;;9.71;100.00;99849.56;1818001;77;20999;-63
2022/11/04 07:21:32;;;;;;;5.58;5.08;;;;;;;9.82;100.00;99846.56;1818606;78;21651;-63
2022/11/04 07:24:00;;;;;;;4.80;4.40;;;;;;;9.92;100.00;99840.51;1820012;78;20951;-63
2022/11/04 07:26:27;;;;;;;7.60;4.90;;;;;;;10.01;100.00;99837.55;1808420;77;21444;-64
2022/11/04 07:28:53;;;;;;;8.45;5.60;;;;;;;10.08;100.00;99837.72;1817329;77;21824;-63
2022/11/04 07:31:21;;;;;;;6.83;5.50;;;;;;;10.12;100.00;99837.15;1807308;77;21477;-65
2022/11/04 07:33:49;;;;;;;5.93;5.37;;;;;;;10.16;100.00;99834.80;1808428;77;21091;-64
2022/11/04 07:36:16;;;;;;;6.75;5.15;;;;;;;10.18;100.00;99829.49;1810233;77;21596;-64
2022/11/04 07:38:43;;;;;;;5.97;5.33;;;;;;;10.23;100.00;99834.97;1814197;77;21521;-64
2022/11/04 07:41:10;;;;;;;9.10;5.78;;;;;;;10.29;100.00;99835.19;1817749;78;21853;-64
2022/11/04 07:43:37;;;;;;;6.10;5.30;;;;;;;10.31;100.00;99826.35;1798770;78;21556;-64
2022/11/04 07:46:07;;;;;;;6.08;5.47;;;;;;;10.33;100.00;99825.83;1816607;77;21545;-65
2022/11/04 07:48:36;;;;;;;6.45;5.10;;;;;;;10.33;100.00;99827.61;1817566;77;21112;-65
2022/11/04 07:51:03;;;;;;;6.23;5.00;;;;;;;10.35;100.00;99824.47;1824811;78;21508;-63
2022/11/04 07:53:31;;;;;;;9.63;5.47;;;;;;;10.40;100.00;99827.78;1806982;78;21814;-64
2022/11/04 07:55:58;;;;;;;5.90;5.35;;;;;;;10.46;100.00;99822.73;1809287;78;21528;-63
2022/11/04 07:58:25;;;;;;;5.53;4.57;;;;;;;10.50;100.00;99810.72;1823826;77;21600;-64
2022/11/04 08:00:58;;;;;;;5.30;4.70;;;;;;;10.54;100.00;99807.97;1811150;78;21056;-64
2022/11/04 08:03:25;;;;;;;7.67;5.15;;;;;;;10.61;100.00;99808.98;1825037;77;21553;-63
2022/11/04 08:05:57;;;;;;;5.78;4.83;;;;;;;10.65;100.00;99807.08;1813160;77;21854;-64
2022/11/04 08:08:24;;;;;;;5.58;5.08;;;;;;;10.69;100.00;99806.03;1809426;78;21502;-66
2022/11/04 08:10:59;;;;;;;5.90;5.30;;;;;;;10.73;100.00;99804.98;1814921;78;21489;-65
2022/11/04 08:13:30;;;;;;;5.87;5.37;;;;;;;10.74;100.00;99805.83;1796550;77;21606;-64
2022/11/04 08:16:01;;;;;;;5.20;4.67;;;;;;;10.70;100.00;99805.98;1813132;77;21633;-62
2022/11/04 08:18:31;;;;;;;7.60;4.72;;;;;;;10.71;100.00;99812.09;1825394;77;21509;-69
2022/11/04 08:20:57;;;;;;;5.72;5.05;;;;;;;10.73;100.00;99806.77;1825465;77;21545;-63
2022/11/04 08:23:24;;;;;;;5.17;4.72;;;;;;;10.78;100.00;99809.61;1811386;78;21612;-66
2022/11/04 08:25:51;;;;;;;6.83;5.33;;;;;;;10.83;100.00;99804.14;1794310;77;20993;-65
2022/11/04 08:28:17;;;;;;;6.37;4.72;;;;;;;10.78;100.00;99809.61;1802498;77;21548;-65
2022/11/04 08:30:56;;;;;;;5.28;4.78;;;;;;;10.79;100.00;99806.04;1814829;77;21711;-65
2022/11/04 08:33:25;;;;;;;5.70;4.95;;;;;;;10.85;100.00;99810.20;1824076;78;21505;-64
2022/11/04 08:35:53;;;;;;;5.70;5.20;;;;;;;10.90;100.00;99816.97;1799493;78;21584;-64
2022/11/04 08:38:20;;;;;;;6.53;5.45;;;;;;;10.94;100.00;99811.60;1800483;77;21677;-66
2022/11/04 08:40:47;;;;;;;8.55;4.97;;;;;;;10.94;100.00;99827.38;1810127;77;21421;-62
2022/11/04 08:43:14;;;;;;;7.20;5.22;;;;;;;10.89;100.00;99813.97;1809810;77;21789;-64
2022/11/04 08:45:42;;;;;;;6.22;5.58;;;;;;;10.76;100.00;99810.13;1804743;78;21533;-64
2022/11/04 08:48:09;;;;;;;6.30;5.60;;;;;;;10.70;100.00;99815.18;1815359;77;21651;-66
2022/11/04 08:50:36;;;;;;;7.37;5.25;;;;;;;10.59;100.00;99808.19;1806794;77;21572;-66
2022/11/04 08:53:03;;;;;;;6.35;5.10;;;;;;;10.52;100.00;99814.13;1813013;77;21607;-66
2022/11/04 08:55:30;;;;;;;6.25;4.80;;;;;;;10.48;100.00;99814.33;1810827;78;21864;-68
2022/11/04 08:57:57;;;;;;;5.60;4.95;;;;;;;10.48;100.00;99814.33;1805227;77;21516;-65
2022/11/04 09:00:23;;;;;;;6.08;5.40;;;;;;;10.43;100.00;99821.06;1816667;77;21468;-62
2022/11/04 09:02:50;;;;;;;6.20;5.20;;;;;;;10.36;100.00;99820.94;1811426;77;21056;-65
2022/11/04 09:05:17;;;;;;;5.37;4.87;;;;;;;10.41;100.00;99817.64;1815787;78;20946;-65
2022/11/04 09:07:44;;;;;;;4.78;4.22;;;;;;;10.42;100.00;99815.90;1803944;78;21887;-66
2022/11/04 09:10:11;;;;;;;5.10;4.60;;;;;;;10.43;100.00;99813.65;1808609;77;21037;-67
2022/11/04 09:12:39;;;;;;;6.00;4.83;;;;;;;10.38;100.00;99816.91;1814567;78;21573;-64
2022/11/04 09:15:07;;;;;;;8.43;4.92;;;;;;;10.37;100.00;99817.84;1792565;77;21568;-67
2022/11/04 09:17:34;;;;;;;5.47;4.40;;;;;;;10.32;100.00;99808.80;1812336;77;21650;-64
2022/11/04 09:20:03;;;;;;;;;;;;;;;10.30;100.00;99813.23;1809603;78;21967;-66
2022/11/04 09:22:30;;;;;;;5.30;4.78;;;;;;;10.19;100.00;99806.22;1796369;77;20832;-66
2022/11/04 09:24:57;;;;;;;7.28;4.60;;;;;;;10.22;100.00;99806.12;1822946;76;21537;-68
2022/11/04 09:27:24;;;;;;;6.75;4.62;;;;;;;10.27;100.00;99810.28;1826239;77;21416;-65
2022/11/04 09:29:50;;;;;;;9.43;4.80;;;;;;;10.24;100.00;99814.33;1814820;76;21001;-62
2022/11/04 09:32:17;;;;;;;7.03;4.97;;;;;;;10.23;100.00;99811.31;1807880;76;21846;-65
2022/11/04 09:34:43;;;;;;;5.55;4.85;;;;;;;10.07;100.00;99813.66;1800208;78;21521;-65
2022/11/04 09:37:11;;;;;;;5.95;5.25;;;;;;;10.09;100.00;99808.36;1811699;77;21033;-65
2022/11/04 09:39:38;;;;;;;7.53;5.03;;;;;;;10.06;100.00;99813.28;1820634;77;21619;-66
2022/11/04 09:42:32;;;;;;;6.20;4.72;;;;;;;10.10;100.00;99814.02;1817464;78;21546;-66
2022/11/04 09:45:06;;;;;;;4.80;4.22;;;;;;;10.14;100.00;99803.79;1815734;77;21928;-63
2022/11/04 09:47:34;;;;;;;6.25;4.62;;;;;;;10.20;100.00;99809.27;1778901;77;21429;-66
2022/11/04 09:50:00;;;;;;;5.78;4.33;;;;;;;10.28;100.00;99810.69;1820593;77;21454;-65
2022/11/04 09:52:33;;;;;;;6.80;4.87;;;;;;;10.39;100.00;99804.18;1821734;77;21080;-66
2022/11/04 09:55:18;;;;;;;7.97;4.67;;;;;;;10.36;100.00;99799.03;1817659;76;21398;-66
2022/11/04 09:57:47;;;;;;;7.45;4.55;;;;;;;10.33;100.00;99800.86;1782040;77;21843;-64
2022/11/04 10:00:15;;;;;;;5.67;4.08;;;;;;;10.25;100.00;99799.44;1816435;77;21479;-62
2022/11/04 10:03:14;;;;;;;8.40;4.72;;;;;;;10.20;100.00;99804.01;1812642;77;21512;-62
2022/11/04 10:06:04;;;;;;;5.55;4.92;;;;;;;10.11;100.00;99802.58;1823581;78;21564;-62
2022/11/04 10:08:56;;;;;;;5.47;4.72;;;;;;;10.09;100.00;99797.84;1828167;77;21675;-63
2022/11/04 10:11:34;;;;;;;6.97;4.92;;;;;;;10.12;100.00;99799.05;1799756;78;22162;-62
2022/11/04 10:14:30;;;;;;;6.20;4.45;;;;;;;10.09;100.00;99800.47;1824718;78;21442;-62
2022/11/04 10:17:31;;;;;;;;;;;;;;;10.12;100.00;99795.11;1805442;77;21482;-64
2022/11/04 10:20:12;;;;;;;4.95;4.47;;;;;;;10.07;100.00;99796.58;1768123;77;21260;-63
2022/11/04 10:22:59;;;;;;;6.70;4.80;;;;;;;10.11;100.00;99798.20;1819554;77;21674;-63
2022/11/04 10:25:48;;;;;;;5.60;3.90;;;;;;;10.15;100.00;99796.29;1812522;77;21431;-63
2022/11/04 10:28:18;;;;;;;6.80;4.83;;;;;;;10.15;100.00;99793.66;1813181;78;21581;-63
2022/11/04 10:30:47;;;;;;;5.75;4.80;;;;;;;10.16;100.00;99799.33;1811175;78;21552;-63
2022/11/04 10:33:32;;;;;;;6.20;4.12;;;;;;;10.11;100.00;99795.58;1820692;78;21534;-63
2022/11/04 10:36:05;;;;;;;5.40;4.60;;;;;;;10.08;100.00;99786.95;1816324;77;21564;-63
2022/11/04 10:38:48;;;;;;;5.83;4.67;;;;;;;10.13;100.00;99785.86;1803273;77;21703;-63
2022/11/04 10:41:34;;;;;;;5.20;4.70;;;;;;;10.19;100.00;99779.52;1822835;77;21419;-63
2022/11/04 10:44:05;;;;;;;4.58;3.90;;;;;;;10.19;100.00;99778.20;1809529;78;21457;-63
2022/11/04 10:47:22;;;;;;;5.05;4.62;;;;;;;10.20;100.00;99773.80;1812819;77;21097;-63
2022/11/04 10:50:04;;;;;;;5.33;4.28;;;;;;;10.23;100.00;99769.74;1819564;78;21636;-62
2022/11/04 10:52:36;;;;;;;6.62;4.60;;;;;;;10.23;100.00;99767.11;1804676;77;21544;-64
2022/11/04 10:55:12;;;;;;;4.75;4.30;;;;;;;10.22;100.00;99766.23;1816191;77;21410;-63
2022/11/04 10:57:39;;;;;;;5.05;4.55;;;;;;;10.27;100.00;99768.70;1811114;77;21419;-67
2022/11/04 11:00:07;;;;;;;5.85;4.05;;;;;;;10.28;100.00;99766.02;1814448;77;21442;-63
2022/11/04 11:02:42;;;;;;;5.17;4.20;;;;;;;10.27;100.00;99757.72;1819655;77;21417;-63
2022/11/04 11:05:20;;;;;;;7.75;4.03;;;;;;;10.37;100.00;99759.55;1824971;76;21825;-64
2022/11/04 11:07:51;;;;;;;4.20;3.80;;;;;;;10.47;100.00;99758.28;1812611;76;21387;-64
2022/11/04 11:10:30;;;;;;;7.85;3.98;;;;;;;10.55;100.00;99748.77;1822807;77;21482;-63
2022/11/04 11:13:06;;;;;;;5.30;3.85;;;;;;;10.62;100.00;99744.09;1803531;76;21430;-63
2022/11/04 11:15:35;;;;;;;5.25;3.85;;;;;;;10.67;100.00;99743.45;1829120;77;21024;-63
2022/11/04 11:18:14;;;;;;;4.62;4.15;;;;;;;10.74;100.00;99748.85;1809453;78;21756;-63
2022/11/04 11:20:46;;;;;;;6.47;4.80;;;;;;;10.83;100.00;99741.02;1815147;77;21044;-63
2022/11/04 11:23:47;;;;;;;5.03;4.58;;;;;;;10.89;100.00;99740.31;1807912;78;21595;-63
2022/11/04 11:26:19;;;;;;;5.03;4.35;;;;;;;10.90;100.00;99733.27;1810196;78;21151;-63
2022/11/04 11:28:55;;;;;;;4.80;4.40;;;;;;;10.79;100.00;99727.14;1817295;77;21617;-63
2022/11/04 11:31:23;;;;;;;4.42;4.03;;;;;;;10.79;100.00;99727.14;1806610;78;21703;-64
2022/11/04 11:33:56;;;;;;;5.15;4.55;;;;;;;10.78;100.00;99725.45;1834913;76;21466;-63
2022/11/04 11:36:29;;;;;;;4.42;3.98;;;;;;;10.83;100.00;99731.81;1817641;78;21501;-63
2022/11/04 11:39:07;;;;;;;5.85;4.80;;;;;;;10.90;100.00;99738.53;1817988;76;21668;-65
2022/11/04 11:41:38;;;;;;;6.20;4.72;;;;;;;10.95;100.00;99733.94;1825012;77;21410;-64
2022/11/04 11:47:59;;;;;;;5.50;5.00;;;;;;;10.97;100.00;99725.98;1813894;76;21426;-64
2022/11/04 11:50:34;;;;;;;5.30;4.80;;;;;;;10.98;100.00;99722.41;1815406;77;21014;-64
2022/11/04 11:53:17;;;;;;;6.42;5.05;;;;;;;11.04;100.00;99719.06;1821555;78;21542;-63
2022/11/04 11:56:17;;;;;;;4.97;4.30;;;;;;;11.07;100.00;99712.81;1800546;76;21565;-64
2022/11/04 11:58:54;;;;;;;4.75;4.37;;;;;;;11.05;100.00;99708.92;1807330;77;21809;-65
2022/11/04 12:01:36;;;;;;;4.60;4.20;;;;;;;10.98;100.00;99706.19;1811783;78;21451;-64
2022/11/04 12:04:04;;;;;;;6.67;4.20;;;;;;;10.98;100.00;99714.52;1821731;77;20974;-64
2022/11/04 12:06:42;;;;;;;5.50;4.47;;;;;;;10.95;100.00;99706.78;1814216;76;21574;-63
2022/11/04 12:09:32;;;;;;;11.33;4.90;;;;;;;10.92;100.00;99706.44;1814287;77;21433;-63
2022/11/04 12:12:16;;;;;;;6.20;4.55;;;;;;;10.88;100.00;99702.23;1795726;77;21857;-64
2022/11/04 12:14:59;;;;;;;5.08;4.58;;;;;;;10.84;100.00;99709.39;1813762;77;21538;-69
2022/11/04 12:17:52;;;;;;;4.90;4.40;;;;;;;10.87;100.00;99705.33;1819377;78;21616;-65
2022/11/04 12:20:47;;;;;;;5.28;4.65;;;;;;;10.88;100.00;99704.86;1823549;77;21419;-66
2022/11/04 12:23:43;;;;;;;6.35;4.50;;;;;;;10.89;100.00;99706.59;1814122;78;21505;-66
2022/11/04 12:26:36;;;;;;;5.25;4.55;;;;;;;10.84;100.00;99706.77;1817530;76;21808;-64
2022/11/04 12:29:14;;;;;;;4.90;4.20;;;;;;;10.80;100.00;99710.92;1811905;76;21631;-64
2022/11/04 12:31:50;;;;;;;5.00;4.40;;;;;;;10.79;100.00;99708.73;1797463;77;21572;-65
2022/11/04 12:34:34;;;;;;;7.87;6.55;;;;;;;10.78;100.00;99709.67;1790367;76;20981;-63
2022/11/04 12:37:41;;;;;;;5.67;5.08;;;;;;;10.72;100.00;99704.67;1802792;77;21485;-64
2022/11/04 12:40:23;;;;;;;4.80;4.00;;;;;;;10.68;100.00;99711.84;1727056;78;22120;-65
2022/11/04 12:43:15;;;;;;;4.03;3.67;;;;;;;10.67;100.00;99714.06;1802608;76;21528;-64
2022/11/04 12:46:09;;;;;;;6.50;5.90;;;;;;;10.69;100.00;99709.58;1811030;78;21579;-63
2022/11/04 12:49:03;;;;;;;6.60;5.03;;;;;;;10.73;100.00;99714.26;1808337;77;21537;-63
2022/11/04 12:51:38;;;;;;;5.97;5.37;;;;;;;10.75;100.00;99709.78;1816942;77;21557;-63
2022/11/04 12:54:30;;;;;;;5.22;4.65;;;;;;;10.83;100.00;99714.72;1813552;78;21410;-63
2022/11/04 12:57:31;;;;;;;6.90;4.28;;;;;;;10.88;100.00;99708.34;1805539;78;21546;-63
2022/11/04 13:00:30;;;;;;;7.78;7.00;;;;;;;10.84;100.00;99705.45;1784565;78;21135;-63
2022/11/04 13:03:03;;;;;;;;;;;;;;;10.80;100.00;99710.92;1631382;84;21480;-64
2022/11/04 13:05:54;;;;;;;8.18;7.45;;;;;;;10.67;100.00;99704.85;1669652;83;20514;-63
2022/11/04 13:08:38;;;;;;;6.97;5.72;;;;;;;10.71;100.00;99710.84;1675941;82;21889;-63
2022/11/04 13:11:28;;;;;;;9.28;6.87;;;;;;;10.69;100.00;99717.94;1682752;83;21726;-63
2022/11/04 13:14:07;;;;;;;8.38;7.15;;;;;;;10.65;100.00;99721.63;1645395;84;21560;-64
2022/11/04 13:16:39;;;;;;;6.50;5.90;;;;;;;10.59;100.00;99720.58;1696199;81;21100;-64
2022/11/04 13:19:14;;;;;;;7.03;4.95;;;;;;;10.54;100.00;99721.22;1688401;81;21618;-63
2022/11/04 13:21:41;;;;;;;5.25;4.78;;;;;;;10.54;100.00;99723.38;1666361;84;21859;-63
2022/11/04 13:24:22;;;;;;;4.40;4.00;;;;;;;10.57;100.00;99719.31;1660536;82;21474;-64
2022/11/04 13:26:49;;;;;;;8.80;6.70;;;;;;;10.56;100.00;99722.00;1659501;82;21567;-63
2022/11/04 13:29:20;;;;;;;9.40;8.38;;;;;;;10.61;100.00;99728.78;1660281;82;21631;-64
2022/11/04 13:32:07;;;;;;;9.50;7.42;;;;;;;10.62;100.00;99723.91;1654697;84;21572;-64
2022/11/04 13:35:18;;;;;;;7.85;5.40;;;;;;;10.66;100.00;99723.31;1657895;84;22190;-63
2022/11/04 13:38:12;;;;;;;4.55;3.77;;;;;;;10.69;100.00;99721.42;1586123;89;21554;-64
2022/11/04 13:41:14;;;;;;;7.03;4.83;;;;;;;10.72;100.00;99720.45;1682492;82;21126;-65
2022/11/04 13:43:48;;;;;;;11.43;8.23;;;;;;;10.74;100.00;99718.61;1693328;82;21662;-63
2022/11/04 13:46:22;;;;;;;6.85;6.10;;;;;;;10.73;100.00;99726.56;1658124;84;21544;-64
2022/11/04 13:49:05;;;;;;;19.05;15.98;;;;;;;10.73;100.00;99722.62;1659603;84;21801;-63
2022/11/04 13:51:40;;;;;;;21.15;16.25;;;;;;;10.71;100.00;99723.52;1658107;84;21525;-64
2022/11/04 13:54:25;;;;;;;37.33;27.50;;;;;;;10.71;100.00;99734.51;1692165;82;21525;-63
2022/11/04 13:57:15;;;;;;;20.57;15.13;;;;;;;10.65;100.00;99722.94;1617694;84;21524;-63
2022/11/04 13:59:43;;;;;;;24.37;17.17;;;;;;;10.62;100.00;99726.53;1671291;84;21068;-63
2022/11/04 14:02:22;;;;;;;;;;;;;;;10.62;100.00;99723.05;1640991;84;21789;-63
2022/11/04 14:04:48;;;;;;;23.55;14.90;;;;;;;10.56;100.00;99723.31;1650102;84;20485;-64
2022/11/04 14:07:16;;;;;;;12.20;9.15;;;;;;;10.54;100.00;99730.42;1689837;81;21161;-62
2022/11/04 14:09:47;;;;;;;;;;;;;;;10.51;100.00;99732.72;1678055;84;21544;-63
2022/11/04 14:12:20;;;;;;;10.58;8.18;;;;;;;10.47;100.00;99727.17;1679763;82;20443;-62
2022/11/04 14:14:53;;;;;;;16.80;10.55;;;;;;;10.51;100.00;99735.36;1652093;84;21775;-63
2022/11/04 14:17:38;;;;;;;13.85;11.43;;;;;;;10.47;100.00;99733.31;1695639;82;21687;-62
2022/11/04 14:20:12;;;;;;;11.43;8.53;;;;;;;10.45;100.00;99729.89;1692131;81;21562;-63
2022/11/04 14:22:59;;;;;;;24.52;16.55;;;;;;;10.40;100.00;99730.99;1675735;84;21548;-63
2022/11/04 14:25:39;;;;;;;18.37;12.85;;;;;;;10.40;100.00;99733.63;1668805;84;20995;-64
2022/11/04 14:28:16;;;;;;;15.15;11.83;;;;;;;10.32;100.00;99735.22;1678939;82;21805;-64
2022/11/04 14:30:50;;;;;;;21.37;14.63;;;;;;;10.25;100.00;99735.91;1697380;82;21571;-67
2022/11/04 14:33:32;;;;;;;18.62;11.60;;;;;;;10.24;100.00;99737.27;1696471;81;21557;-65
2022/11/04 14:36:21;;;;;;;34.80;21.37;;;;;;;10.27;100.00;99733.22;1692428;81;21586;-64
2022/11/04 14:39:12;;;;;;;20.15;14.07;;;;;;;10.25;100.00;99730.66;1694334;81;21545;-64